sensor_id;sensor_type;location;lat;lon;timestamp;P1;durP1;ratioP1;P2;durP2;ratioP2
63286;SDS011;49410;55.708;37.522;2023-02-26T00:00:58;24.55;;;8.82;;
63286;SDS011;49410;55.708;37.522;2023-02-26T00:03:24;22.38;;;9.60;;
63286;SDS011;49410;55.708;37.522;2023-02-26T00:05:50;20.73;;;9.00;;
63286;SDS011;49410;55.708;37.522;2023-02-26T00:08:15;29.05;;;8.23;;
63286;SDS011;49410;55.708;37.522;2023-02-26T00:10:41;20.55;;;8.90;;
63286;SDS011;49410;55.708;37.522;2023-02-26T00:13:08;20.90;;;9.10;;
63286;SDS011;49410;55.708;37.522;2023-02-26T00:15:35;19.75;;;7.80;;
63286;SDS011;49410;55.708;37.522;2023-02-26T00:18:02;21.48;;;8.60;;
63286;SDS011;49410;55.708;37.522;2023-02-26T00:20:30;25.80;;;10.45;;
63286;SDS011;49410;55.708;37.522;2023-02-26T00:22:56;24.35;;;9.20;;
63286;SDS011;49410;55.708;37.522;2023-02-26T00:25:22;25.08;;;9.70;;
63286;SDS011;49410;55.708;37.522;2023-02-26T00:27:47;27.55;;;10.57;;
63286;SDS011;49410;55.708;37.522;2023-02-26T00:30:13;26.30;;;10.98;;
63286;SDS011;49410;55.708;37.522;2023-02-26T00:32:39;24.83;;;9.95;;
63286;SDS011;49410;55.708;37.522;2023-02-26T00:35:06;23.35;;;8.57;;
63286;SDS011;49410;55.708;37.522;2023-02-26T00:43:00;16.25;;;5.47;;
63286;SDS011;49410;55.708;37.522;2023-02-26T00:45:30;18.65;;;6.97;;
63286;SDS011;49410;55.708;37.522;2023-02-26T00:48:10;16.15;;;6.30;;
63286;SDS011;49410;55.708;37.522;2023-02-26T00:50:50;15.05;;;5.70;;
63286;SDS011;49410;55.708;37.522;2023-02-26T00:53:25;12.32;;;5.50;;
63286;SDS011;49410;55.708;37.522;2023-02-26T00:55:55;15.43;;;5.40;;
63286;SDS011;49410;55.708;37.522;2023-02-26T00:58:21;11.45;;;4.43;;
63286;SDS011;49410;55.708;37.522;2023-02-26T01:00:46;12.88;;;4.85;;
63286;SDS011;49410;55.708;37.522;2023-02-26T01:03:12;12.48;;;4.97;;
63286;SDS011;49410;55.708;37.522;2023-02-26T01:05:38;10.65;;;4.22;;
63286;SDS011;49410;55.708;37.522;2023-02-26T01:08:14;10.02;;;4.63;;
63286;SDS011;49410;55.708;37.522;2023-02-26T01:10:49;12.50;;;5.10;;
63286;SDS011;49410;55.708;37.522;2023-02-26T01:13:15;11.82;;;4.60;;
63286;SDS011;49410;55.708;37.522;2023-02-26T01:15:42;11.05;;;4.57;;
63286;SDS011;49410;55.708;37.522;2023-02-26T01:19:02;10.13;;;4.80;;
63286;SDS011;49410;55.708;37.522;2023-02-26T01:21:05;9.43;;;3.65;;
63286;SDS011;49410;55.708;37.522;2023-02-26T01:23:37;11.00;;;4.10;;
63286;SDS011;49410;55.708;37.522;2023-02-26T01:26:07;12.70;;;4.15;;
63286;SDS011;49410;55.708;37.522;2023-02-26T01:28:39;9.60;;;4.15;;
63286;SDS011;49410;55.708;37.522;2023-02-26T01:31:05;9.90;;;3.63;;
63286;SDS011;49410;55.708;37.522;2023-02-26T01:33:39;13.57;;;4.65;;
63286;SDS011;49410;55.708;37.522;2023-02-26T01:36:09;8.82;;;4.03;;
63286;SDS011;49410;55.708;37.522;2023-02-26T01:41:19;8.88;;;3.30;;
63286;SDS011;49410;55.708;37.522;2023-02-26T01:51:18;9.48;;;3.40;;
63286;SDS011;49410;55.708;37.522;2023-02-26T01:54:09;7.75;;;2.97;;
63286;SDS011;49410;55.708;37.522;2023-02-26T01:56:35;10.05;;;3.95;;
63286;SDS011;49410;55.708;37.522;2023-02-26T01:59:02;7.85;;;3.60;;
63286;SDS011;49410;55.708;37.522;2023-02-26T02:01:33;9.95;;;4.15;;
63286;SDS011;49410;55.708;37.522;2023-02-26T02:04:01;9.55;;;4.38;;
63286;SDS011;49410;55.708;37.522;2023-02-26T02:06:28;10.13;;;3.85;;
63286;SDS011;49410;55.708;37.522;2023-02-26T02:08:55;13.43;;;4.40;;
63286;SDS011;49410;55.708;37.522;2023-02-26T02:11:20;9.15;;;3.78;;
63286;SDS011;49410;55.708;37.522;2023-02-26T02:16:32;10.93;;;4.70;;
63286;SDS011;49410;55.708;37.522;2023-02-26T02:22:12;12.98;;;5.45;;
63286;SDS011;49410;55.708;37.522;2023-02-26T02:30:24;9.45;;;3.80;;
63286;SDS011;49410;55.708;37.522;2023-02-26T02:33:00;10.43;;;4.03;;
63286;SDS011;49410;55.708;37.522;2023-02-26T02:38:06;11.88;;;4.40;;
63286;SDS011;49410;55.708;37.522;2023-02-26T02:40:38;8.02;;;3.47;;
63286;SDS011;49410;55.708;37.522;2023-02-26T02:43:10;9.55;;;4.10;;
63286;SDS011;49410;55.708;37.522;2023-02-26T02:45:55;9.07;;;3.80;;
63286;SDS011;49410;55.708;37.522;2023-02-26T02:48:30;8.00;;;3.20;;
63286;SDS011;49410;55.708;37.522;2023-02-26T02:51:10;7.75;;;2.80;;
63286;SDS011;49410;55.708;37.522;2023-02-26T02:53:54;8.27;;;3.10;;
63286;SDS011;49410;55.708;37.522;2023-02-26T02:57:08;6.93;;;2.45;;
63286;SDS011;49410;55.708;37.522;2023-02-26T02:59:41;9.18;;;2.90;;
63286;SDS011;49410;55.708;37.522;2023-02-26T03:02:55;7.15;;;2.85;;
63286;SDS011;49410;55.708;37.522;2023-02-26T03:05:17;7.72;;;3.05;;
63286;SDS011;49410;55.708;37.522;2023-02-26T03:07:47;6.70;;;2.22;;
63286;SDS011;49410;55.708;37.522;2023-02-26T03:10:17;6.80;;;2.75;;
63286;SDS011;49410;55.708;37.522;2023-02-26T03:12:43;6.38;;;2.55;;
63286;SDS011;49410;55.708;37.522;2023-02-26T03:15:09;7.07;;;2.92;;
63286;SDS011;49410;55.708;37.522;2023-02-26T03:17:39;6.63;;;2.53;;
63286;SDS011;49410;55.708;37.522;2023-02-26T03:36:00;7.90;;;3.05;;
63286;SDS011;49410;55.708;37.522;2023-02-26T03:38:36;7.63;;;3.05;;
63286;SDS011;49410;55.708;37.522;2023-02-26T03:41:13;7.30;;;3.28;;
63286;SDS011;49410;55.708;37.522;2023-02-26T03:43:48;8.38;;;3.58;;
63286;SDS011;49410;55.708;37.522;2023-02-26T03:46:18;7.38;;;3.42;;
63286;SDS011;49410;55.708;37.522;2023-02-26T03:48:49;6.78;;;3.08;;
63286;SDS011;49410;55.708;37.522;2023-02-26T03:51:16;6.75;;;2.60;;
63286;SDS011;49410;55.708;37.522;2023-02-26T03:53:47;8.95;;;3.50;;
63286;SDS011;49410;55.708;37.522;2023-02-26T03:56:27;7.38;;;2.60;;
63286;SDS011;49410;55.708;37.522;2023-02-26T03:58:57;7.55;;;3.10;;
63286;SDS011;49410;55.708;37.522;2023-02-26T04:01:26;7.20;;;2.47;;
63286;SDS011;49410;55.708;37.522;2023-02-26T04:04:11;7.43;;;3.00;;
63286;SDS011;49410;55.708;37.522;2023-02-26T04:06:58;6.07;;;3.00;;
63286;SDS011;49410;55.708;37.522;2023-02-26T04:09:25;7.15;;;2.90;;
63286;SDS011;49410;55.708;37.522;2023-02-26T04:11:51;8.05;;;3.10;;
63286;SDS011;49410;55.708;37.522;2023-02-26T04:14:18;7.40;;;3.10;;
63286;SDS011;49410;55.708;37.522;2023-02-26T04:16:44;6.20;;;2.40;;
63286;SDS011;49410;55.708;37.522;2023-02-26T04:19:10;8.18;;;2.60;;
63286;SDS011;49410;55.708;37.522;2023-02-26T04:21:36;8.30;;;2.80;;
63286;SDS011;49410;55.708;37.522;2023-02-26T04:24:02;7.03;;;2.60;;
63286;SDS011;49410;55.708;37.522;2023-02-26T04:26:28;5.95;;;2.58;;
63286;SDS011;49410;55.708;37.522;2023-02-26T04:28:53;6.40;;;2.78;;
63286;SDS011;49410;55.708;37.522;2023-02-26T04:31:19;7.00;;;2.90;;
63286;SDS011;49410;55.708;37.522;2023-02-26T04:33:44;8.43;;;3.13;;
63286;SDS011;49410;55.708;37.522;2023-02-26T04:36:10;6.55;;;2.85;;
63286;SDS011;49410;55.708;37.522;2023-02-26T04:38:35;6.13;;;2.75;;
63286;SDS011;49410;55.708;37.522;2023-02-26T04:41:01;7.63;;;2.97;;
63286;SDS011;49410;55.708;37.522;2023-02-26T04:43:27;7.97;;;2.75;;
63286;SDS011;49410;55.708;37.522;2023-02-26T04:45:53;9.27;;;2.58;;
63286;SDS011;49410;55.708;37.522;2023-02-26T04:48:18;6.88;;;2.58;;
63286;SDS011;49410;55.708;37.522;2023-02-26T04:50:44;6.22;;;2.58;;
63286;SDS011;49410;55.708;37.522;2023-02-26T04:53:09;6.97;;;2.58;;
63286;SDS011;49410;55.708;37.522;2023-02-26T04:55:35;5.60;;;2.10;;
63286;SDS011;49410;55.708;37.522;2023-02-26T04:58:01;5.90;;;2.28;;
63286;SDS011;49410;55.708;37.522;2023-02-26T05:00:27;5.28;;;2.13;;
63286;SDS011;49410;55.708;37.522;2023-02-26T05:02:53;6.03;;;2.53;;
63286;SDS011;49410;55.708;37.522;2023-02-26T05:05:18;4.35;;;1.77;;
63286;SDS011;49410;55.708;37.522;2023-02-26T05:07:44;5.40;;;1.88;;
63286;SDS011;49410;55.708;37.522;2023-02-26T05:10:10;5.63;;;2.30;;
63286;SDS011;49410;55.708;37.522;2023-02-26T05:12:36;4.68;;;1.98;;
63286;SDS011;49410;55.708;37.522;2023-02-26T05:15:02;5.57;;;1.95;;
63286;SDS011;49410;55.708;37.522;2023-02-26T05:17:28;5.32;;;1.70;;
63286;SDS011;49410;55.708;37.522;2023-02-26T05:19:53;5.05;;;1.80;;
63286;SDS011;49410;55.708;37.522;2023-02-26T05:22:19;4.82;;;1.92;;
63286;SDS011;49410;55.708;37.522;2023-02-26T05:24:44;4.63;;;1.67;;
63286;SDS011;49410;55.708;37.522;2023-02-26T05:27:10;4.20;;;1.40;;
63286;SDS011;49410;55.708;37.522;2023-02-26T05:29:35;3.13;;;1.48;;
63286;SDS011;49410;55.708;37.522;2023-02-26T05:32:01;4.72;;;1.75;;
63286;SDS011;49410;55.708;37.522;2023-02-26T05:34:27;5.28;;;1.58;;
63286;SDS011;49410;55.708;37.522;2023-02-26T05:36:53;3.85;;;1.42;;
63286;SDS011;49410;55.708;37.522;2023-02-26T05:39:18;3.80;;;1.50;;
63286;SDS011;49410;55.708;37.522;2023-02-26T05:41:44;4.07;;;1.25;;
63286;SDS011;49410;55.708;37.522;2023-02-26T05:44:10;3.63;;;1.30;;
63286;SDS011;49410;55.708;37.522;2023-02-26T05:46:36;3.35;;;1.30;;
63286;SDS011;49410;55.708;37.522;2023-02-26T05:49:02;3.33;;;1.25;;
63286;SDS011;49410;55.708;37.522;2023-02-26T05:51:27;4.35;;;1.30;;
63286;SDS011;49410;55.708;37.522;2023-02-26T05:53:53;3.47;;;1.38;;
63286;SDS011;49410;55.708;37.522;2023-02-26T05:56:19;4.25;;;1.40;;
63286;SDS011;49410;55.708;37.522;2023-02-26T05:58:44;3.97;;;1.55;;
63286;SDS011;49410;55.708;37.522;2023-02-26T06:01:10;3.25;;;1.40;;
63286;SDS011;49410;55.708;37.522;2023-02-26T06:03:36;3.03;;;1.42;;
63286;SDS011;49410;55.708;37.522;2023-02-26T06:06:04;3.53;;;1.30;;
63286;SDS011;49410;55.708;37.522;2023-02-26T06:08:29;3.55;;;1.48;;
63286;SDS011;49410;55.708;37.522;2023-02-26T06:10:55;4.88;;;1.52;;
63286;SDS011;49410;55.708;37.522;2023-02-26T06:13:20;3.42;;;1.20;;
63286;SDS011;49410;55.708;37.522;2023-02-26T06:15:48;3.58;;;1.20;;
63286;SDS011;49410;55.708;37.522;2023-02-26T06:18:16;3.55;;;1.25;;
63286;SDS011;49410;55.708;37.522;2023-02-26T06:20:42;3.88;;;1.45;;
63286;SDS011;49410;55.708;37.522;2023-02-26T06:23:07;3.70;;;1.52;;
63286;SDS011;49410;55.708;37.522;2023-02-26T06:25:32;3.30;;;1.27;;
63286;SDS011;49410;55.708;37.522;2023-02-26T06:27:59;5.07;;;1.77;;
63286;SDS011;49410;55.708;37.522;2023-02-26T06:30:25;3.45;;;1.30;;
63286;SDS011;49410;55.708;37.522;2023-02-26T06:32:50;4.78;;;1.58;;
63286;SDS011;49410;55.708;37.522;2023-02-26T06:35:16;3.63;;;1.25;;
63286;SDS011;49410;55.708;37.522;2023-02-26T06:37:41;3.88;;;1.30;;
63286;SDS011;49410;55.708;37.522;2023-02-26T06:40:07;4.10;;;1.83;;
63286;SDS011;49410;55.708;37.522;2023-02-26T06:42:35;4.88;;;1.58;;
63286;SDS011;49410;55.708;37.522;2023-02-26T06:45:01;5.40;;;1.73;;
63286;SDS011;49410;55.708;37.522;2023-02-26T06:47:27;3.97;;;1.30;;
63286;SDS011;49410;55.708;37.522;2023-02-26T06:49:52;4.72;;;1.75;;
63286;SDS011;49410;55.708;37.522;2023-02-26T06:52:18;5.45;;;1.58;;
63286;SDS011;49410;55.708;37.522;2023-02-26T06:54:43;4.43;;;1.30;;
63286;SDS011;49410;55.708;37.522;2023-02-26T06:57:09;4.70;;;2.00;;
63286;SDS011;49410;55.708;37.522;2023-02-26T06:59:35;4.95;;;1.60;;
63286;SDS011;49410;55.708;37.522;2023-02-26T07:02:00;4.55;;;1.60;;
63286;SDS011;49410;55.708;37.522;2023-02-26T07:04:26;4.53;;;1.70;;
63286;SDS011;49410;55.708;37.522;2023-02-26T07:06:51;5.05;;;1.75;;
63286;SDS011;49410;55.708;37.522;2023-02-26T07:09:16;4.68;;;1.63;;
63286;SDS011;49410;55.708;37.522;2023-02-26T07:11:44;4.75;;;1.77;;
63286;SDS011;49410;55.708;37.522;2023-02-26T07:14:09;6.47;;;1.85;;
63286;SDS011;49410;55.708;37.522;2023-02-26T07:16:35;4.55;;;1.83;;
63286;SDS011;49410;55.708;37.522;2023-02-26T07:19:00;4.60;;;1.80;;
63286;SDS011;49410;55.708;37.522;2023-02-26T07:21:26;4.50;;;1.65;;
63286;SDS011;49410;55.708;37.522;2023-02-26T07:23:51;3.25;;;1.30;;
63286;SDS011;49410;55.708;37.522;2023-02-26T07:26:17;4.38;;;1.80;;
63286;SDS011;49410;55.708;37.522;2023-02-26T07:28:43;4.60;;;1.98;;
63286;SDS011;49410;55.708;37.522;2023-02-26T07:31:08;4.35;;;1.98;;
63286;SDS011;49410;55.708;37.522;2023-02-26T07:33:34;4.40;;;1.83;;
63286;SDS011;49410;55.708;37.522;2023-02-26T07:36:00;4.43;;;1.67;;
63286;SDS011;49410;55.708;37.522;2023-02-26T07:38:25;4.30;;;1.50;;
63286;SDS011;49410;55.708;37.522;2023-02-26T07:40:54;5.35;;;1.90;;
63286;SDS011;49410;55.708;37.522;2023-02-26T07:43:20;6.15;;;1.80;;
63286;SDS011;49410;55.708;37.522;2023-02-26T07:45:48;4.35;;;1.80;;
63286;SDS011;49410;55.708;37.522;2023-02-26T07:48:13;4.50;;;1.67;;
63286;SDS011;49410;55.708;37.522;2023-02-26T07:50:39;4.90;;;1.60;;
63286;SDS011;49410;55.708;37.522;2023-02-26T07:56:19;4.10;;;1.52;;
63286;SDS011;49410;55.708;37.522;2023-02-26T07:58:44;5.63;;;1.75;;
63286;SDS011;49410;55.708;37.522;2023-02-26T08:01:10;5.60;;;1.98;;
63286;SDS011;49410;55.708;37.522;2023-02-26T08:03:36;5.05;;;1.70;;
63286;SDS011;49410;55.708;37.522;2023-02-26T08:06:01;5.47;;;1.40;;
63286;SDS011;49410;55.708;37.522;2023-02-26T08:08:27;4.15;;;1.50;;
63286;SDS011;49410;55.708;37.522;2023-02-26T08:10:52;5.22;;;1.60;;
63286;SDS011;49410;55.708;37.522;2023-02-26T08:13:18;4.57;;;1.90;;
63286;SDS011;49410;55.708;37.522;2023-02-26T08:15:43;4.00;;;1.40;;
63286;SDS011;49410;55.708;37.522;2023-02-26T08:18:08;4.65;;;1.80;;
63286;SDS011;49410;55.708;37.522;2023-02-26T08:20:34;5.93;;;1.67;;
63286;SDS011;49410;55.708;37.522;2023-02-26T08:22:59;5.70;;;1.50;;
63286;SDS011;49410;55.708;37.522;2023-02-26T08:25:25;4.15;;;1.60;;
63286;SDS011;49410;55.708;37.522;2023-02-26T08:27:50;4.35;;;1.75;;
63286;SDS011;49410;55.708;37.522;2023-02-26T08:30:15;3.20;;;1.35;;
63286;SDS011;49410;55.708;37.522;2023-02-26T08:32:41;3.88;;;1.50;;
63286;SDS011;49410;55.708;37.522;2023-02-26T08:35:07;5.00;;;1.42;;
63286;SDS011;49410;55.708;37.522;2023-02-26T08:37:32;3.35;;;1.45;;
63286;SDS011;49410;55.708;37.522;2023-02-26T08:39:58;3.03;;;1.30;;
63286;SDS011;49410;55.708;37.522;2023-02-26T08:42:23;4.70;;;1.55;;
63286;SDS011;49410;55.708;37.522;2023-02-26T08:44:48;3.28;;;1.10;;
63286;SDS011;49410;55.708;37.522;2023-02-26T08:47:14;3.05;;;1.20;;
63286;SDS011;49410;55.708;37.522;2023-02-26T08:49:39;2.88;;;1.23;;
63286;SDS011;49410;55.708;37.522;2023-02-26T08:52:04;2.17;;;1.08;;
63286;SDS011;49410;55.708;37.522;2023-02-26T08:54:30;3.42;;;1.00;;
63286;SDS011;49410;55.708;37.522;2023-02-26T08:56:56;3.75;;;1.20;;
63286;SDS011;49410;55.708;37.522;2023-02-26T08:59:22;3.63;;;1.13;;
63286;SDS011;49410;55.708;37.522;2023-02-26T09:01:47;3.28;;;1.20;;
63286;SDS011;49410;55.708;37.522;2023-02-26T09:04:13;3.05;;;1.08;;
63286;SDS011;49410;55.708;37.522;2023-02-26T09:06:38;2.65;;;1.10;;
63286;SDS011;49410;55.708;37.522;2023-02-26T09:09:04;3.60;;;1.20;;
63286;SDS011;49410;55.708;37.522;2023-02-26T09:11:29;3.13;;;1.27;;
63286;SDS011;49410;55.708;37.522;2023-02-26T09:13:56;3.55;;;1.30;;
63286;SDS011;49410;55.708;37.522;2023-02-26T09:16:27;3.15;;;1.10;;
63286;SDS011;49410;55.708;37.522;2023-02-26T09:18:54;2.75;;;1.05;;
63286;SDS011;49410;55.708;37.522;2023-02-26T09:21:20;2.85;;;1.38;;
63286;SDS011;49410;55.708;37.522;2023-02-26T09:23:46;3.00;;;1.27;;
63286;SDS011;49410;55.708;37.522;2023-02-26T09:26:11;4.80;;;1.45;;
63286;SDS011;49410;55.708;37.522;2023-02-26T09:28:37;3.42;;;1.40;;
63286;SDS011;49410;55.708;37.522;2023-02-26T09:31:03;3.47;;;1.38;;
63286;SDS011;49410;55.708;37.522;2023-02-26T09:33:31;3.97;;;1.20;;
63286;SDS011;49410;55.708;37.522;2023-02-26T09:35:57;2.60;;;1.10;;
63286;SDS011;49410;55.708;37.522;2023-02-26T09:38:23;4.25;;;1.40;;
63286;SDS011;49410;55.708;37.522;2023-02-26T09:46:20;4.07;;;1.30;;
63286;SDS011;49410;55.708;37.522;2023-02-26T09:48:53;2.97;;;1.38;;
63286;SDS011;49410;55.708;37.522;2023-02-26T09:54:35;3.58;;;1.20;;
63286;SDS011;49410;55.708;37.522;2023-02-26T09:57:08;3.38;;;1.30;;
63286;SDS011;49410;55.708;37.522;2023-02-26T09:59:39;3.20;;;1.20;;
63286;SDS011;49410;55.708;37.522;2023-02-26T10:08:16;3.63;;;1.30;;
63286;SDS011;49410;55.708;37.522;2023-02-26T10:10:50;3.47;;;1.30;;
63286;SDS011;49410;55.708;37.522;2023-02-26T10:16:15;3.47;;;1.30;;
63286;SDS011;49410;55.708;37.522;2023-02-26T10:18:49;3.80;;;1.40;;
63286;SDS011;49410;55.708;37.522;2023-02-26T10:21:21;4.00;;;1.58;;
63286;SDS011;49410;55.708;37.522;2023-02-26T10:23:54;3.70;;;1.30;;
63286;SDS011;49410;55.708;37.522;2023-02-26T10:26:23;4.03;;;1.60;;
63286;SDS011;49410;55.708;37.522;2023-02-26T10:28:53;3.85;;;1.30;;
63286;SDS011;49410;55.708;37.522;2023-02-26T10:34:29;4.22;;;1.20;;
63286;SDS011;49410;55.708;37.522;2023-02-26T10:40:23;3.35;;;1.40;;
63286;SDS011;49410;55.708;37.522;2023-02-26T10:43:21;3.08;;;1.15;;
63286;SDS011;49410;55.708;37.522;2023-02-26T10:46:07;3.40;;;1.20;;
63286;SDS011;49410;55.708;37.522;2023-02-26T10:51:41;3.63;;;1.20;;
63286;SDS011;49410;55.708;37.522;2023-02-26T10:57:03;3.47;;;1.20;;
63286;SDS011;49410;55.708;37.522;2023-02-26T10:59:29;3.67;;;1.50;;
63286;SDS011;49410;55.708;37.522;2023-02-26T11:01:55;3.13;;;1.23;;
63286;SDS011;49410;55.708;37.522;2023-02-26T11:04:23;3.85;;;1.40;;
63286;SDS011;49410;55.708;37.522;2023-02-26T11:06:52;4.38;;;1.50;;
63286;SDS011;49410;55.708;37.522;2023-02-26T11:09:23;3.97;;;1.30;;
63286;SDS011;49410;55.708;37.522;2023-02-26T11:11:54;3.60;;;1.55;;
63286;SDS011;49410;55.708;37.522;2023-02-26T11:14:25;5.68;;;1.48;;
63286;SDS011;49410;55.708;37.522;2023-02-26T11:16:52;4.45;;;1.50;;
63286;SDS011;49410;55.708;37.522;2023-02-26T11:19:38;4.60;;;1.40;;
63286;SDS011;49410;55.708;37.522;2023-02-26T11:22:10;3.35;;;1.20;;
63286;SDS011;49410;55.708;37.522;2023-02-26T11:24:42;5.18;;;2.03;;
63286;SDS011;49410;55.708;37.522;2023-02-26T11:27:18;3.90;;;1.48;;
63286;SDS011;49410;55.708;37.522;2023-02-26T11:29:46;4.97;;;1.58;;
63286;SDS011;49410;55.708;37.522;2023-02-26T11:32:21;4.25;;;1.48;;
63286;SDS011;49410;55.708;37.522;2023-02-26T11:34:52;4.15;;;1.38;;
63286;SDS011;49410;55.708;37.522;2023-02-26T11:37:21;4.25;;;1.38;;
63286;SDS011;49410;55.708;37.522;2023-02-26T11:39:54;4.22;;;1.60;;
63286;SDS011;49410;55.708;37.522;2023-02-26T11:42:23;4.55;;;1.40;;
63286;SDS011;49410;55.708;37.522;2023-02-26T11:44:49;6.35;;;1.40;;
63286;SDS011;49410;55.708;37.522;2023-02-26T11:47:17;4.30;;;1.48;;
63286;SDS011;49410;55.708;37.522;2023-02-26T11:49:52;4.55;;;1.45;;
63286;SDS011;49410;55.708;37.522;2023-02-26T11:52:32;4.30;;;1.55;;
63286;SDS011;49410;55.708;37.522;2023-02-26T11:55:04;4.00;;;1.20;;
63286;SDS011;49410;55.708;37.522;2023-02-26T11:57:41;4.70;;;1.55;;
63286;SDS011;49410;55.708;37.522;2023-02-26T12:00:16;3.90;;;1.63;;
63286;SDS011;49410;55.708;37.522;2023-02-26T12:02:44;4.63;;;1.60;;
63286;SDS011;49410;55.708;37.522;2023-02-26T12:05:09;4.60;;;1.48;;
63286;SDS011;49410;55.708;37.522;2023-02-26T12:07:40;4.60;;;1.65;;
63286;SDS011;49410;55.708;37.522;2023-02-26T12:10:14;4.30;;;1.52;;
63286;SDS011;49410;55.708;37.522;2023-02-26T12:12:48;5.10;;;1.77;;
63286;SDS011;49410;55.708;37.522;2023-02-26T12:20:39;5.28;;;1.85;;
63286;SDS011;49410;55.708;37.522;2023-02-26T12:23:30;5.25;;;1.60;;
63286;SDS011;49410;55.708;37.522;2023-02-26T12:26:26;3.70;;;1.40;;
63286;SDS011;49410;55.708;37.522;2023-02-26T12:31:47;4.55;;;1.80;;
63286;SDS011;49410;55.708;37.522;2023-02-26T12:50:50;6.20;;;2.45;;
63286;SDS011;49410;55.708;37.522;2023-02-26T13:21:24;12.15;;;3.25;;
63286;SDS011;49410;55.708;37.522;2023-02-26T13:24:02;7.43;;;3.00;;
63286;SDS011;49410;55.708;37.522;2023-02-26T13:26:32;7.72;;;2.85;;
63286;SDS011;49410;55.708;37.522;2023-02-26T13:34:49;9.18;;;3.53;;
63286;SDS011;49410;55.708;37.522;2023-02-26T13:39:55;8.02;;;3.67;;
63286;SDS011;49410;55.708;37.522;2023-02-26T13:42:28;9.35;;;3.30;;
63286;SDS011;49410;55.708;37.522;2023-02-26T13:56:04;8.40;;;4.07;;
63286;SDS011;49410;55.708;37.522;2023-02-26T13:58:52;10.38;;;4.25;;
63286;SDS011;49410;55.708;37.522;2023-02-26T14:01:27;9.57;;;4.40;;
63286;SDS011;49410;55.708;37.522;2023-02-26T14:06:43;11.02;;;4.80;;
63286;SDS011;49410;55.708;37.522;2023-02-26T14:14:36;10.18;;;4.35;;
63286;SDS011;49410;55.708;37.522;2023-02-26T14:19:35;9.65;;;4.13;;
63286;SDS011;49410;55.708;37.522;2023-02-26T14:24:37;9.65;;;4.72;;
63286;SDS011;49410;55.708;37.522;2023-02-26T14:29:42;11.70;;;4.85;;
63286;SDS011;49410;55.708;37.522;2023-02-26T14:35:22;10.82;;;4.72;;
63286;SDS011;49410;55.708;37.522;2023-02-26T14:44:14;14.13;;;5.43;;
63286;SDS011;49410;55.708;37.522;2023-02-26T14:46:45;10.90;;;5.03;;
63286;SDS011;49410;55.708;37.522;2023-02-26T14:49:46;11.10;;;5.00;;
63286;SDS011;49410;55.708;37.522;2023-02-26T15:06:27;10.00;;;4.22;;
63286;SDS011;49410;55.708;37.522;2023-02-26T15:25:18;11.63;;;4.97;;
63286;SDS011;49410;55.708;37.522;2023-02-26T15:27:53;12.00;;;5.38;;
63286;SDS011;49410;55.708;37.522;2023-02-26T15:30:19;10.07;;;4.30;;
63286;SDS011;49410;55.708;37.522;2023-02-26T15:32:45;12.98;;;5.82;;
63286;SDS011;49410;55.708;37.522;2023-02-26T15:35:15;14.55;;;5.22;;
63286;SDS011;49410;55.708;37.522;2023-02-26T15:37:44;13.30;;;5.20;;
63286;SDS011;49410;55.708;37.522;2023-02-26T15:40:13;13.00;;;5.43;;
63286;SDS011;49410;55.708;37.522;2023-02-26T15:42:40;12.82;;;5.43;;
63286;SDS011;49410;55.708;37.522;2023-02-26T15:45:30;11.48;;;4.90;;
63286;SDS011;49410;55.708;37.522;2023-02-26T15:48:04;12.80;;;5.30;;
63286;SDS011;49410;55.708;37.522;2023-02-26T15:50:37;12.10;;;5.30;;
63286;SDS011;49410;55.708;37.522;2023-02-26T15:53:06;14.02;;;6.20;;
63286;SDS011;49410;55.708;37.522;2023-02-26T15:55:37;13.00;;;5.78;;
63286;SDS011;49410;55.708;37.522;2023-02-26T15:58:10;15.57;;;5.68;;
63286;SDS011;49410;55.708;37.522;2023-02-26T16:00:43;12.98;;;5.05;;
63286;SDS011;49410;55.708;37.522;2023-02-26T16:03:09;12.38;;;5.80;;
63286;SDS011;49410;55.708;37.522;2023-02-26T16:05:35;13.93;;;5.63;;
63286;SDS011;49410;55.708;37.522;2023-02-26T16:08:00;12.65;;;5.45;;
63286;SDS011;49410;55.708;37.522;2023-02-26T16:10:38;13.45;;;6.22;;
63286;SDS011;49410;55.708;37.522;2023-02-26T16:13:06;12.70;;;5.57;;
63286;SDS011;49410;55.708;37.522;2023-02-26T16:15:38;10.40;;;4.65;;
63286;SDS011;49410;55.708;37.522;2023-02-26T16:20:58;12.93;;;5.82;;
63286;SDS011;49410;55.708;37.522;2023-02-26T16:23:46;12.50;;;5.22;;
63286;SDS011;49410;55.708;37.522;2023-02-26T16:28:58;13.10;;;5.30;;
63286;SDS011;49410;55.708;37.522;2023-02-26T16:31:27;10.43;;;5.00;;
63286;SDS011;49410;55.708;37.522;2023-02-26T16:33:59;12.60;;;5.70;;
63286;SDS011;49410;55.708;37.522;2023-02-26T16:36:37;13.25;;;5.38;;
63286;SDS011;49410;55.708;37.522;2023-02-26T16:41:33;12.57;;;5.72;;
63286;SDS011;49410;55.708;37.522;2023-02-26T16:44:01;13.25;;;5.05;;
63286;SDS011;49410;55.708;37.522;2023-02-26T16:49:13;11.00;;;4.72;;
63286;SDS011;49410;55.708;37.522;2023-02-26T16:51:53;13.48;;;5.13;;
63286;SDS011;49410;55.708;37.522;2023-02-26T16:54:22;10.90;;;4.43;;
63286;SDS011;49410;55.708;37.522;2023-02-26T16:56:51;11.50;;;4.65;;
63286;SDS011;49410;55.708;37.522;2023-02-26T16:59:27;12.40;;;5.03;;
63286;SDS011;49410;55.708;37.522;2023-02-26T17:01:59;10.80;;;4.55;;
63286;SDS011;49410;55.708;37.522;2023-02-26T17:04:28;12.73;;;5.18;;
63286;SDS011;49410;55.708;37.522;2023-02-26T17:06:58;14.98;;;4.65;;
63286;SDS011;49410;55.708;37.522;2023-02-26T17:14:31;10.38;;;3.88;;
63286;SDS011;49410;55.708;37.522;2023-02-26T17:17:04;14.40;;;4.65;;
63286;SDS011;49410;55.708;37.522;2023-02-26T17:19:30;12.98;;;4.97;;
63286;SDS011;49410;55.708;37.522;2023-02-26T17:21:56;10.10;;;4.43;;
63286;SDS011;49410;55.708;37.522;2023-02-26T17:24:25;12.23;;;4.85;;
63286;SDS011;49410;55.708;37.522;2023-02-26T17:26:56;12.35;;;4.80;;
63286;SDS011;49410;55.708;37.522;2023-02-26T17:29:25;11.52;;;4.68;;
63286;SDS011;49410;55.708;37.522;2023-02-26T17:31:56;14.38;;;5.57;;
63286;SDS011;49410;55.708;37.522;2023-02-26T17:34:22;9.40;;;3.95;;
63286;SDS011;49410;55.708;37.522;2023-02-26T17:36:47;12.40;;;4.32;;
63286;SDS011;49410;55.708;37.522;2023-02-26T17:39:14;11.23;;;4.18;;
63286;SDS011;49410;55.708;37.522;2023-02-26T17:41:43;8.35;;;3.97;;
63286;SDS011;49410;55.708;37.522;2023-02-26T17:44:09;10.60;;;4.72;;
63286;SDS011;49410;55.708;37.522;2023-02-26T17:46:35;14.35;;;5.03;;
63286;SDS011;49410;55.708;37.522;2023-02-26T17:49:01;12.65;;;4.93;;
63286;SDS011;49410;55.708;37.522;2023-02-26T17:51:27;12.05;;;4.95;;
63286;SDS011;49410;55.708;37.522;2023-02-26T17:53:52;13.18;;;5.40;;
63286;SDS011;49410;55.708;37.522;2023-02-26T17:56:23;12.70;;;4.30;;
63286;SDS011;49410;55.708;37.522;2023-02-26T17:58:52;11.25;;;4.70;;
63286;SDS011;49410;55.708;37.522;2023-02-26T18:01:18;14.43;;;4.93;;
63286;SDS011;49410;55.708;37.522;2023-02-26T18:03:44;12.63;;;4.95;;
63286;SDS011;49410;55.708;37.522;2023-02-26T18:06:10;11.70;;;4.40;;
63286;SDS011;49410;55.708;37.522;2023-02-26T18:08:38;12.48;;;4.50;;
63286;SDS011;49410;55.708;37.522;2023-02-26T18:11:05;11.13;;;4.57;;
63286;SDS011;49410;55.708;37.522;2023-02-26T18:13:31;11.38;;;4.00;;
63286;SDS011;49410;55.708;37.522;2023-02-26T18:15:57;11.10;;;4.43;;
63286;SDS011;49410;55.708;37.522;2023-02-26T18:18:26;12.40;;;5.07;;
63286;SDS011;49410;55.708;37.522;2023-02-26T18:20:52;11.30;;;4.35;;
63286;SDS011;49410;55.708;37.522;2023-02-26T18:23:18;11.35;;;4.47;;
63286;SDS011;49410;55.708;37.522;2023-02-26T18:25:44;11.57;;;4.60;;